createdAt,value
2018-06-09T00:00:46.389Z,108.85
2018-06-09T00:01:53.563Z,106.00
2018-06-09T00:03:02.961Z,109.37
2018-06-09T00:04:09.558Z,110.42
2018-06-09T00:05:16.550Z,108.52
2018-06-09T00:06:22.118Z,113.65
2018-06-09T00:07:29.866Z,112.68
2018-06-09T00:08:35.795Z,112.75
2018-06-09T00:09:46.493Z,114.28
2018-06-09T00:10:54.154Z,110.43
2018-06-09T00:11:59.576Z,112.70
2018-06-09T00:13:05.260Z,111.72
2018-06-09T00:14:12.101Z,113.97
2018-06-09T00:15:18.038Z,111.60
2018-06-09T00:16:23.743Z,109.70
2018-06-09T00:17:29.353Z,110.78
2018-06-09T00:18:34.695Z,109.35
2018-06-09T00:19:41.640Z,111.90
2018-06-09T00:20:48.325Z,111.75
2018-06-09T00:21:53.853Z,111.50
2018-06-09T00:22:59.914Z,113.45
2018-06-09T00:24:05.757Z,108.05
2018-06-09T00:25:12.646Z,114.85
2018-06-09T00:26:18.896Z,117.45
2018-06-09T00:27:24.608Z,116.82
2018-06-09T00:28:29.911Z,120.17
2018-06-09T00:29:36.091Z,117.03
2018-06-09T00:30:42.137Z,131.20
2018-06-09T00:31:47.435Z,118.02
2018-06-09T00:32:53.457Z,134.90
2018-06-09T00:33:58.735Z,123.05
2018-06-09T00:35:05.761Z,128.47
2018-06-09T00:36:12.223Z,118.15
2018-06-09T00:37:18.239Z,110.15
2018-06-09T00:38:24.221Z,116.10
2018-06-09T00:39:30.274Z,115.50
2018-06-09T00:40:36.258Z,112.28
2018-06-09T00:41:41.576Z,116.85
2018-06-09T00:42:48.538Z,113.72
2018-06-09T00:43:54.462Z,111.47
2018-06-09T00:45:00.587Z,112.32
2018-06-09T00:46:07.459Z,113.25
2018-06-09T00:47:12.605Z,113.08
2018-06-09T00:48:18.202Z,116.22
2018-06-09T00:49:24.358Z,120.05
2018-06-09T00:50:29.841Z,117.50
2018-06-09T00:51:42.053Z,117.85
2018-06-09T00:52:48.505Z,118.60
2018-06-09T00:53:56.330Z,125.10
2018-06-09T00:55:01.806Z,118.85
2018-06-09T00:56:12.102Z,119.77
2018-06-09T00:57:17.761Z,118.73
2018-06-09T00:58:24.332Z,120.00
2018-06-09T00:59:29.522Z,124.40
2018-06-09T01:00:34.705Z,120.90
2018-06-09T01:01:40.207Z,123.00
2018-06-09T01:02:46.776Z,126.20
2018-06-09T01:03:52.064Z,123.45
2018-06-09T01:04:57.262Z,118.75
2018-06-09T01:06:02.808Z,124.42
2018-06-09T01:07:10.056Z,125.25
2018-06-09T01:08:16.033Z,125.00
2018-06-09T01:09:21.303Z,123.02
2018-06-09T01:10:27.293Z,127.85
2018-06-09T01:11:33.512Z,140.55
2018-06-09T01:12:38.804Z,131.20
2018-06-09T01:13:46.504Z,148.43
2018-06-09T01:14:51.951Z,157.22
2018-06-09T01:15:57.572Z,165.00
2018-06-09T01:17:05.778Z,149.20
2018-06-09T01:18:11.278Z,153.30
2018-06-09T01:19:17.639Z,155.00
2018-06-09T01:20:25.698Z,131.10
2018-06-09T01:21:31.294Z,134.30
2018-06-09T01:22:36.564Z,136.07
2018-06-09T01:23:41.779Z,140.75
2018-06-09T01:24:47.912Z,135.28
2018-06-09T01:25:53.124Z,139.30
2018-06-09T01:26:58.437Z,148.02
2018-06-09T01:28:03.833Z,137.90
2018-06-09T01:29:09.117Z,136.43
2018-06-09T01:30:14.408Z,137.68
2018-06-09T01:31:21.813Z,137.28
2018-06-09T01:32:27.035Z,131.60
2018-06-09T01:33:32.453Z,130.43
2018-06-09T01:34:38.672Z,130.45
2018-06-09T01:35:45.212Z,127.30
2018-06-09T01:36:50.547Z,129.53
2018-06-09T01:37:56.667Z,126.40
2018-06-09T01:39:02.110Z,124.38
2018-06-09T01:40:08.191Z,121.20
2018-06-09T01:41:15.869Z,123.78
2018-06-09T01:42:21.155Z,120.40
2018-06-09T01:43:26.484Z,121.72
2018-06-09T01:44:32.225Z,120.75
2018-06-09T01:45:38.042Z,119.70
2018-06-09T01:46:43.982Z,118.85
2018-06-09T01:47:49.387Z,122.20
2018-06-09T01:48:54.558Z,124.15
2018-06-09T01:50:00.878Z,122.78
2018-06-09T01:51:04.658Z,123.75
2018-06-09T01:52:08.468Z,127.00
2018-06-09T01:53:12.224Z,130.00
2018-06-09T01:54:16.006Z,130.57
2018-06-09T01:55:21.355Z,128.80
2018-06-09T01:56:25.406Z,130.00
2018-06-09T01:57:29.376Z,135.40
2018-06-09T01:58:34.609Z,133.03
2018-06-09T01:59:38.385Z,136.10
2018-06-09T02:00:42.396Z,138.15
2018-06-09T02:01:47.129Z,139.03
2018-06-09T02:02:51.128Z,136.88
2018-06-09T02:03:56.587Z,139.95
2018-06-09T02:05:00.618Z,140.45
2018-06-09T02:06:04.386Z,141.90
2018-06-09T02:07:08.216Z,142.28
2018-06-09T02:08:11.980Z,141.20
2018-06-09T02:09:15.886Z,142.35
2018-06-09T02:10:19.724Z,140.10
2018-06-09T02:11:23.482Z,143.55
2018-06-09T02:12:27.403Z,145.43
2018-06-09T02:13:31.202Z,146.37
2018-06-09T02:14:36.784Z,144.72
2018-06-09T02:15:40.644Z,145.40
2018-06-09T02:16:44.415Z,141.22
2018-06-09T02:17:48.191Z,142.50
2018-06-09T02:18:51.971Z,147.55
2018-06-09T02:19:55.745Z,145.32
2018-06-09T02:20:59.538Z,142.40
2018-06-09T02:22:03.438Z,146.65
2018-06-09T02:23:08.546Z,146.87
2018-06-09T02:24:12.628Z,146.95
2018-06-09T02:25:16.518Z,147.82
2018-06-09T02:26:20.255Z,148.35
2018-06-09T02:27:24.047Z,148.75
2018-06-09T02:28:27.864Z,153.20
2018-06-09T02:29:31.936Z,149.05
2018-06-09T02:30:35.758Z,153.05
2018-06-09T02:31:39.500Z,148.45
2018-06-09T02:32:44.471Z,147.85
2018-06-09T02:33:48.829Z,149.23
2018-06-09T02:34:52.665Z,155.40
2018-06-09T02:35:56.499Z,144.95
2018-06-09T02:37:00.283Z,148.15
2018-06-09T02:38:04.979Z,147.30
2018-06-09T02:39:08.746Z,144.63
2018-06-09T02:40:12.599Z,143.37
2018-06-09T02:41:16.673Z,141.45
2018-06-09T02:42:20.422Z,143.37
2018-06-09T02:43:24.466Z,142.18
2018-06-09T02:44:28.219Z,142.30
2018-06-09T02:45:32.027Z,136.90
2018-06-09T02:46:36.095Z,140.43
2018-06-09T02:47:39.856Z,137.43
2018-06-09T02:48:43.629Z,136.40
2018-06-09T02:49:47.394Z,144.65
2018-06-09T02:50:51.144Z,129.68
2018-06-09T02:51:55.211Z,126.72
2018-06-09T02:52:58.978Z,126.38
2018-06-09T02:54:02.767Z,123.58
2018-06-09T02:55:06.551Z,125.27
2018-06-09T02:56:10.335Z,122.80
2018-06-09T02:57:15.062Z,123.20
2018-06-09T02:58:18.876Z,119.95
2018-06-09T02:59:22.696Z,123.05
2018-06-09T03:00:26.461Z,126.05
2018-06-09T03:01:30.670Z,125.53
2018-06-09T03:02:34.589Z,131.50
2018-06-09T03:03:39.676Z,133.55
2018-06-09T03:04:46.405Z,137.97
2018-06-09T03:05:50.587Z,137.82
2018-06-09T03:06:54.357Z,136.92
2018-06-09T03:07:58.144Z,137.65
2018-06-09T03:09:02.300Z,140.40
2018-06-09T03:10:06.054Z,137.97
2018-06-09T03:11:09.856Z,138.72
2018-06-09T03:12:13.675Z,144.97
2018-06-09T03:13:17.438Z,147.05
2018-06-09T03:14:21.221Z,140.23
2018-06-09T03:15:24.979Z,141.40
2018-06-09T03:16:28.866Z,135.82
2018-06-09T03:17:34.161Z,133.82
2018-06-09T03:18:38.008Z,134.05
2018-06-09T03:19:41.792Z,130.27
2018-06-09T03:20:45.920Z,131.07
2018-06-09T03:21:49.703Z,129.57
2018-06-09T03:22:53.588Z,133.95
2018-06-09T03:23:57.354Z,136.95
2018-06-09T03:25:01.257Z,134.72
2018-06-09T03:26:05.432Z,133.18
2018-06-09T03:27:09.940Z,133.20
2018-06-09T03:28:13.735Z,132.97
2018-06-09T03:29:17.465Z,139.15
2018-06-09T03:30:21.230Z,147.45
2018-06-09T03:31:26.054Z,145.38
2018-06-09T03:32:30.140Z,148.80
2018-06-09T03:33:33.973Z,147.02
2018-06-09T03:34:37.737Z,149.38
2018-06-09T03:35:41.487Z,147.40
2018-06-09T03:36:45.380Z,147.47
2018-06-09T03:37:49.164Z,149.02
2018-06-09T03:38:52.930Z,147.90
2018-06-09T03:39:56.682Z,144.87
2018-06-09T03:41:00.421Z,145.62
2018-06-09T03:42:04.417Z,145.93
2018-06-09T03:43:08.872Z,146.47
2018-06-09T03:44:13.379Z,145.80
2018-06-09T03:45:17.120Z,148.02
2018-06-09T03:46:22.177Z,145.68
2018-06-09T03:47:26.833Z,148.43
2018-06-09T03:48:32.178Z,144.80
2018-06-09T03:49:37.213Z,141.35
2018-06-09T03:50:41.298Z,143.20
2018-06-09T03:51:45.314Z,140.12
2018-06-09T03:52:49.124Z,139.07
2018-06-09T03:53:53.036Z,138.52
2018-06-09T03:54:56.844Z,134.87
2018-06-09T03:56:00.661Z,135.82
2018-06-09T03:57:04.403Z,135.88
2018-06-09T03:58:08.622Z,133.75
2018-06-09T03:59:12.401Z,135.07
2018-06-09T04:00:16.301Z,131.12
2018-06-09T04:01:20.516Z,127.50
2018-06-09T04:02:24.261Z,131.60
2018-06-09T04:03:28.973Z,130.05
2018-06-09T04:04:32.726Z,125.82
2018-06-09T04:05:36.632Z,126.77
2018-06-09T04:06:40.409Z,125.65
2018-06-09T04:07:44.167Z,123.87
2018-06-09T04:08:47.975Z,120.00
2018-06-09T04:09:51.705Z,122.45
2018-06-09T04:10:55.602Z,125.80
2018-06-09T04:11:59.773Z,120.37
2018-06-09T04:13:04.712Z,124.00
2018-06-09T04:14:08.436Z,123.65
2018-06-09T04:15:13.223Z,124.47
2018-06-09T04:16:17.025Z,120.22
2018-06-09T04:17:22.074Z,121.45
2018-06-09T04:18:25.845Z,118.55
2018-06-09T04:19:30.006Z,116.12
2018-06-09T04:20:35.185Z,117.15
2018-06-09T04:21:39.020Z,116.70
2018-06-09T04:22:42.768Z,117.25
2018-06-09T04:23:46.542Z,117.70
2018-06-09T04:24:50.541Z,118.25
2018-06-09T04:25:54.705Z,117.30
2018-06-09T04:26:59.547Z,116.42
2018-06-09T04:28:03.740Z,116.50
2018-06-09T04:29:07.530Z,116.08
2018-06-09T04:30:11.296Z,111.80
2018-06-09T04:32:50.516Z,110.92
2018-06-09T04:33:55.483Z,111.00
2018-06-09T04:34:59.266Z,112.25
2018-06-09T04:36:03.038Z,110.25
2018-06-09T04:37:06.930Z,111.80
2018-06-09T04:38:10.710Z,109.07
2018-06-09T04:39:14.473Z,109.97
2018-06-09T04:40:18.538Z,108.87
2018-06-09T04:41:22.485Z,108.22
2018-06-09T04:42:26.300Z,106.35
2018-06-09T04:43:30.045Z,108.67
2018-06-09T04:44:33.810Z,103.42
2018-06-09T04:45:37.844Z,106.60
2018-06-09T04:46:42.520Z,107.03
2018-06-09T04:47:46.413Z,106.45
2018-06-09T04:48:51.482Z,107.52
2018-06-09T04:49:55.670Z,107.65
2018-06-09T04:50:59.771Z,106.92
2018-06-09T04:52:03.713Z,110.05
2018-06-09T04:53:10.590Z,104.97
2018-06-09T04:54:14.428Z,107.65
2018-06-09T04:55:18.187Z,106.17
2018-06-09T04:56:22.766Z,107.47
2018-06-09T04:57:26.888Z,104.40
2018-06-09T04:58:33.679Z,106.12
2018-06-09T04:59:38.130Z,105.55
2018-06-09T05:00:41.912Z,103.62
2018-06-09T05:01:45.722Z,100.60
2018-06-09T05:02:52.808Z,95.50
2018-06-09T05:03:56.817Z,98.72
2018-06-09T05:05:00.708Z,98.75
2018-06-09T05:06:04.913Z,99.40
2018-06-09T05:07:08.977Z,97.75
2018-06-09T05:08:12.878Z,101.43
2018-06-09T05:09:16.708Z,103.97
2018-06-09T05:10:20.574Z,106.12
2018-06-09T05:11:25.189Z,105.70
2018-06-09T05:12:28.975Z,103.67
2018-06-09T05:13:32.776Z,108.10
2018-06-09T05:14:36.855Z,105.52
2018-06-09T05:15:40.667Z,101.18
2018-06-09T05:16:44.484Z,101.78
2018-06-09T05:17:48.578Z,106.52
2018-06-09T05:18:53.623Z,105.65
2018-06-09T05:19:58.249Z,103.87
2018-06-09T05:21:02.049Z,103.40
2018-06-09T05:22:06.182Z,103.95
2018-06-09T05:23:10.324Z,102.38
2018-06-09T05:24:14.525Z,101.22
2018-06-09T05:25:18.939Z,98.40
2018-06-09T05:26:22.752Z,102.92
2018-06-09T05:27:27.262Z,100.00
2018-06-09T05:28:31.167Z,99.47
2018-06-09T05:29:37.852Z,102.02
2018-06-09T05:30:43.350Z,102.92
2018-06-09T05:31:47.164Z,99.62
2018-06-09T05:32:51.007Z,103.15
2018-06-09T05:33:54.770Z,102.42
2018-06-09T05:34:58.577Z,100.35
2018-06-09T05:36:02.347Z,104.85
2018-06-09T05:37:06.115Z,107.87
2018-06-09T05:38:10.088Z,108.35
2018-06-09T05:39:14.769Z,112.85
2018-06-09T05:40:18.552Z,108.80
2018-06-09T05:41:22.339Z,109.83
2018-06-09T05:42:26.094Z,108.52
2018-06-09T05:43:31.124Z,107.37
2018-06-09T05:44:34.910Z,106.00
2018-06-09T05:45:38.754Z,107.60
2018-06-09T05:46:42.596Z,106.43
2018-06-09T05:47:49.555Z,103.78
2018-06-09T05:48:56.391Z,105.87
2018-06-09T05:50:00.198Z,100.05
2018-06-09T05:51:04.134Z,103.65
2018-06-09T05:52:09.162Z,101.92
2018-06-09T05:53:13.145Z,106.07
2018-06-09T05:54:16.884Z,103.78
2018-06-09T05:55:20.927Z,104.80
2018-06-09T05:56:26.024Z,105.83
2018-06-09T05:57:29.979Z,104.72
2018-06-09T05:58:33.864Z,104.58
2018-06-09T05:59:37.629Z,106.15
2018-06-09T06:00:41.680Z,110.28
2018-06-09T06:01:45.468Z,107.25
2018-06-09T06:02:49.614Z,109.87
2018-06-09T06:03:53.407Z,111.05
2018-06-09T06:04:58.415Z,109.45
2018-06-09T06:06:02.292Z,109.67
2018-06-09T06:07:06.115Z,109.67
2018-06-09T06:08:10.056Z,110.37
2018-06-09T06:09:13.889Z,112.15
2018-06-09T06:10:17.770Z,112.32
2018-06-09T06:11:21.625Z,110.37
2018-06-09T06:12:25.831Z,110.48
2018-06-09T06:13:30.452Z,111.08
2018-06-09T06:14:34.260Z,104.17
2018-06-09T06:15:38.075Z,106.78
2018-06-09T06:16:41.923Z,106.50
2018-06-09T06:17:47.233Z,106.03
2018-06-09T06:18:51.984Z,107.50
2018-06-09T06:19:56.590Z,108.10
2018-06-09T06:21:02.895Z,104.55
2018-06-09T06:22:09.314Z,103.50
2018-06-09T06:23:15.866Z,101.90
2018-06-09T06:24:21.238Z,99.95
2018-06-09T06:25:26.734Z,98.40
2018-06-09T06:26:33.518Z,95.07
2018-06-09T06:27:39.030Z,94.67
2018-06-09T06:28:46.320Z,94.25
2018-06-09T06:29:51.677Z,95.55
2018-06-09T06:30:57.294Z,92.10
2018-06-09T06:32:08.692Z,95.25
2018-06-09T06:33:16.153Z,95.05
2018-06-09T06:34:29.534Z,94.65
2018-06-09T06:35:33.291Z,95.67
2018-06-09T06:36:37.049Z,90.70
2018-06-09T06:37:40.838Z,95.35
2018-06-09T06:38:44.598Z,94.40
2018-06-09T06:39:49.564Z,93.95
2018-06-09T06:40:53.436Z,91.45
2018-06-09T06:41:57.219Z,92.78
2018-06-09T06:43:01.613Z,92.57
2018-06-09T06:44:05.425Z,90.07
2018-06-09T06:45:09.651Z,88.90
2018-06-09T06:46:14.236Z,93.33
2018-06-09T06:47:21.690Z,88.72
2018-06-09T06:48:26.636Z,87.22
2018-06-09T06:49:30.501Z,84.25
2018-06-09T06:50:34.520Z,83.50
2018-06-09T06:51:38.300Z,84.92
2018-06-09T06:52:42.114Z,83.33
2018-06-09T06:53:45.933Z,84.20
2018-06-09T06:54:49.659Z,87.70
2018-06-09T06:55:53.392Z,87.08
2018-06-09T06:56:57.107Z,79.50
2018-06-09T06:58:00.875Z,79.82
2018-06-09T06:59:04.675Z,80.15
2018-06-09T07:00:08.426Z,79.97
2018-06-09T07:01:12.686Z,78.85
2018-06-09T07:02:16.407Z,80.45
2018-06-09T07:03:21.336Z,78.55
2018-06-09T07:04:26.758Z,85.90
2018-06-09T07:05:30.582Z,86.83
2018-06-09T07:06:34.305Z,85.65
2018-06-09T07:07:38.028Z,83.60
2018-06-09T07:08:41.791Z,83.40
2018-06-09T07:09:45.532Z,83.50
2018-06-09T07:10:49.451Z,86.65
2018-06-09T07:11:53.246Z,87.02
2018-06-09T07:12:57.068Z,84.75
2018-06-09T07:14:01.253Z,85.87
2018-06-09T07:15:05.614Z,88.85
2018-06-09T07:16:09.608Z,86.17
2018-06-09T07:17:13.538Z,91.28
2018-06-09T07:18:17.748Z,89.97
2018-06-09T07:19:21.619Z,87.20
2018-06-09T07:20:25.776Z,88.97
2018-06-09T07:21:31.272Z,87.82
2018-06-09T07:22:39.692Z,86.67
2018-06-09T07:23:44.975Z,85.20
2018-06-09T07:24:52.852Z,88.97
2018-06-09T07:25:57.415Z,85.60
2018-06-09T07:27:01.823Z,84.52
2018-06-09T07:28:05.670Z,86.60
2018-06-09T07:29:09.419Z,88.95
2018-06-09T07:30:13.192Z,92.40
2018-06-09T07:31:17.908Z,87.53
2018-06-09T07:32:21.835Z,87.95
2018-06-09T07:33:25.623Z,87.35
2018-06-09T07:34:33.157Z,77.85
2018-06-09T07:35:37.219Z,77.15
2018-06-09T07:36:41.063Z,75.85
2018-06-09T07:37:44.888Z,77.35
2018-06-09T07:38:49.065Z,78.55
2018-06-09T07:39:53.116Z,81.35
2018-06-09T07:40:56.966Z,79.10
2018-06-09T07:42:00.856Z,80.60
2018-06-09T07:43:06.135Z,80.38
2018-06-09T07:44:09.983Z,86.80
2018-06-09T07:45:14.751Z,84.15
2018-06-09T07:46:18.523Z,83.25
2018-06-09T07:47:22.287Z,84.40
2018-06-09T07:48:26.386Z,88.47
2018-06-09T07:49:30.656Z,82.82
2018-06-09T07:50:34.542Z,80.67
2018-06-09T07:51:39.887Z,80.50
2018-06-09T07:52:43.662Z,80.77
2018-06-09T07:53:47.441Z,84.62
2018-06-09T07:54:51.222Z,86.35
2018-06-09T07:55:55.279Z,85.72
2018-06-09T07:56:59.071Z,84.40
2018-06-09T07:58:02.891Z,83.80
2018-06-09T07:59:06.707Z,84.92
2018-06-09T08:00:13.863Z,83.27
2018-06-09T08:01:17.737Z,84.72
2018-06-09T08:02:21.558Z,82.22
2018-06-09T08:03:25.709Z,82.00
2018-06-09T08:04:29.493Z,81.63
2018-06-09T08:05:34.319Z,80.05
2018-06-09T08:06:40.780Z,82.57
2018-06-09T08:07:44.640Z,81.50
2018-06-09T08:08:48.486Z,83.33
2018-06-09T08:09:53.502Z,87.85
2018-06-09T08:10:57.354Z,88.15
2018-06-09T08:12:01.405Z,91.78
2018-06-09T08:13:05.561Z,90.05
2018-06-09T08:14:09.663Z,89.28
2018-06-09T08:15:14.477Z,89.95
2018-06-09T08:16:18.342Z,88.50
2018-06-09T08:17:22.139Z,86.02
2018-06-09T08:18:26.446Z,86.40
2018-06-09T08:19:30.553Z,82.57
2018-06-09T08:20:34.513Z,99.83
2018-06-09T08:21:39.188Z,84.67
2018-06-09T08:22:43.096Z,84.50
2018-06-09T08:23:46.890Z,78.67
2018-06-09T08:24:51.994Z,78.90
2018-06-09T08:25:56.915Z,81.28
2018-06-09T08:27:03.331Z,79.47
2018-06-09T08:28:07.638Z,78.70
2018-06-09T08:29:11.493Z,78.17
2018-06-09T08:30:23.123Z,76.65
2018-06-09T08:31:31.032Z,75.03
2018-06-09T08:32:37.629Z,75.08
2018-06-09T08:33:42.579Z,77.08
2018-06-09T08:34:47.506Z,79.27
2018-06-09T08:35:51.304Z,77.10
2018-06-09T08:36:55.084Z,76.22
2018-06-09T08:38:01.005Z,75.57
2018-06-09T08:39:07.505Z,71.75
2018-06-09T08:40:15.295Z,71.45
2018-06-09T08:41:23.720Z,69.87
2018-06-09T08:42:27.523Z,69.00
2018-06-09T08:43:33.915Z,66.72
2018-06-09T08:44:40.331Z,68.85
2018-06-09T08:45:44.162Z,65.83
2018-06-09T08:46:49.752Z,69.03
2018-06-09T08:47:53.524Z,65.12
2018-06-09T08:48:57.319Z,65.85
2018-06-09T08:50:01.537Z,64.60
2018-06-09T08:51:05.284Z,63.00
2018-06-09T08:52:09.139Z,62.88
2018-06-09T08:53:12.975Z,57.50
2018-06-09T08:54:18.306Z,58.15
2018-06-09T08:55:22.137Z,56.50
2018-06-09T08:56:26.018Z,58.05
2018-06-09T08:57:29.798Z,54.73
2018-06-09T08:58:33.559Z,55.45
2018-06-09T08:59:38.441Z,54.57
2018-06-09T09:00:43.564Z,53.42
2018-06-09T09:01:47.618Z,55.08
2018-06-09T09:02:51.503Z,51.40
2018-06-09T09:03:57.547Z,54.53
2018-06-09T09:05:01.349Z,53.45
2018-06-09T09:06:05.296Z,52.88
2018-06-09T09:07:09.165Z,54.55
2018-06-09T09:08:13.192Z,54.77
2018-06-09T09:09:16.995Z,55.17
2018-06-09T09:10:20.879Z,53.78
2018-06-09T09:11:25.036Z,52.27
2018-06-09T09:12:29.106Z,51.00
2018-06-09T09:13:33.107Z,51.73
2018-06-09T09:14:36.982Z,50.95
2018-06-09T09:15:41.014Z,49.63
2018-06-09T09:16:44.889Z,51.95
2018-06-09T09:17:48.709Z,51.48
2018-06-09T09:18:54.367Z,47.85
2018-06-09T09:19:58.423Z,47.33
2018-06-09T09:21:02.832Z,48.13
2018-06-09T09:22:08.224Z,48.33
2018-06-09T09:23:12.165Z,49.73
2018-06-09T09:24:15.988Z,46.98
2018-06-09T09:25:19.752Z,49.38
2018-06-09T09:26:25.104Z,49.60
2018-06-09T09:27:29.391Z,49.48
2018-06-09T09:28:33.211Z,48.60
2018-06-09T09:29:37.199Z,48.63
2018-06-09T09:30:47.475Z,48.83
2018-06-09T09:32:10.554Z,49.38
2018-06-09T09:33:15.666Z,48.55
2018-06-09T09:34:21.451Z,48.75
2018-06-09T09:35:27.497Z,48.70
2018-06-09T09:36:32.029Z,47.50
2018-06-09T09:37:39.813Z,54.15
2018-06-09T09:38:43.841Z,45.83
2018-06-09T09:39:49.467Z,45.92
2018-06-09T09:40:58.131Z,46.68
2018-06-09T09:42:02.656Z,45.17
2018-06-09T09:43:06.525Z,44.73
2018-06-09T09:44:10.417Z,45.52
2018-06-09T09:45:15.549Z,44.38
2018-06-09T09:46:19.937Z,43.85
2018-06-09T09:47:27.366Z,45.00
2018-06-09T09:48:40.436Z,46.20
2018-06-09T09:49:58.753Z,47.13
2018-06-09T09:51:02.774Z,47.88
2018-06-09T09:52:21.487Z,49.50
2018-06-09T09:53:39.493Z,48.42
2018-06-09T09:54:44.119Z,44.38
2018-06-09T09:55:49.965Z,45.10
2018-06-09T09:56:55.397Z,45.20
2018-06-09T09:58:01.475Z,44.50
2018-06-09T09:59:05.529Z,45.85
2018-06-09T10:00:09.255Z,44.75
2018-06-09T10:01:14.374Z,42.97
2018-06-09T10:02:18.289Z,43.95
2018-06-09T10:03:22.918Z,44.75
2018-06-09T10:04:27.502Z,43.83
2018-06-09T10:05:32.159Z,42.95
2018-06-09T10:06:39.612Z,44.05
2018-06-09T10:07:44.261Z,44.33
2018-06-09T10:08:48.188Z,51.02
2018-06-09T10:09:52.254Z,45.65
2018-06-09T10:10:56.285Z,45.30
2018-06-09T10:12:01.160Z,45.92
2018-06-09T10:13:08.158Z,45.75
2018-06-09T10:14:12.222Z,43.30
2018-06-09T10:15:20.993Z,44.38
2018-06-09T10:16:25.859Z,41.25
2018-06-09T10:17:30.096Z,43.35
2018-06-09T10:18:36.448Z,41.77
2018-06-09T10:19:40.528Z,41.30
2018-06-09T10:20:46.297Z,42.95
2018-06-09T10:21:50.238Z,42.27
2018-06-09T10:22:55.012Z,41.25
2018-06-09T10:24:01.690Z,37.50
2018-06-09T10:25:05.583Z,38.00
2018-06-09T10:26:10.944Z,36.28
2018-06-09T10:27:15.966Z,36.38
2018-06-09T10:28:24.263Z,37.10
2018-06-09T10:29:28.259Z,38.75
2018-06-09T10:30:32.104Z,41.13
2018-06-09T10:31:37.026Z,45.70
2018-06-09T10:32:40.867Z,53.95
2018-06-09T10:33:44.869Z,43.17
2018-06-09T10:34:49.764Z,41.15
2018-06-09T10:35:56.509Z,45.17
2018-06-09T10:37:01.086Z,44.30
2018-06-09T10:38:04.833Z,75.28
2018-06-09T10:39:08.853Z,50.73
2018-06-09T10:40:13.755Z,78.62
2018-06-09T10:41:20.788Z,49.30
2018-06-09T10:42:25.422Z,49.15
2018-06-09T10:43:32.474Z,35.78
2018-06-09T10:44:36.211Z,53.17
2018-06-09T10:45:41.359Z,57.73
2018-06-09T10:46:45.456Z,44.13
2018-06-09T10:47:49.741Z,47.00
2018-06-09T10:48:53.492Z,45.43
2018-06-09T10:50:03.139Z,50.95
2018-06-09T10:51:08.354Z,43.67
2018-06-09T10:52:13.137Z,41.60
2018-06-09T10:53:18.386Z,53.52
2018-06-09T10:54:22.933Z,37.25
2018-06-09T10:55:34.090Z,59.20
2018-06-09T10:56:38.754Z,40.17
2018-06-09T10:57:47.098Z,38.88
2018-06-09T10:58:52.782Z,42.90
2018-06-09T10:59:57.475Z,33.45
2018-06-09T11:01:02.444Z,36.20
2018-06-09T11:02:10.731Z,34.43
2018-06-09T11:03:14.542Z,32.63
2018-06-09T11:04:20.528Z,32.48
2018-06-09T11:05:24.560Z,38.90
2018-06-09T11:06:28.515Z,42.65
2018-06-09T11:07:32.995Z,45.83
2018-06-09T11:08:41.584Z,106.90
2018-06-09T11:09:47.878Z,47.53
2018-06-09T11:10:51.655Z,35.60
2018-06-09T11:11:56.648Z,37.95
2018-06-09T11:13:02.208Z,40.20
2018-06-09T11:14:06.234Z,35.98
2018-06-09T11:15:10.827Z,39.33
2018-06-09T11:16:14.974Z,38.80
2018-06-09T11:17:19.152Z,40.17
2018-06-09T11:18:25.107Z,39.18
2018-06-09T11:19:31.811Z,42.93
2018-06-09T11:20:36.022Z,39.03
2018-06-09T11:21:43.334Z,41.70
2018-06-09T11:22:47.198Z,34.58
2018-06-09T11:23:51.074Z,37.17
2018-06-09T11:24:55.187Z,41.80
2018-06-09T11:25:59.365Z,31.75
2018-06-09T11:27:03.241Z,54.63
2018-06-09T11:28:07.051Z,39.42
2018-06-09T11:29:12.742Z,31.37
2018-06-09T11:30:17.463Z,52.93
2018-06-09T11:31:21.443Z,31.12
2018-06-09T11:32:25.279Z,64.42
2018-06-09T11:33:29.276Z,45.98
2018-06-09T11:34:33.053Z,32.75
2018-06-09T11:35:39.405Z,42.55
2018-06-09T11:36:44.392Z,36.58
2018-06-09T11:37:48.316Z,33.55
2018-06-09T11:38:55.178Z,32.93
2018-06-09T11:39:59.256Z,29.80
2018-06-09T11:41:03.087Z,31.60
2018-06-09T11:42:13.084Z,31.60
2018-06-09T11:43:17.081Z,28.02
2018-06-09T11:44:22.436Z,27.80
2018-06-09T11:45:26.357Z,28.57
2018-06-09T11:46:30.284Z,27.27
2018-06-09T11:47:37.973Z,27.30
2018-06-09T11:48:42.984Z,29.70
2018-06-09T11:49:47.592Z,29.45
2018-06-09T11:50:51.577Z,29.30
2018-06-09T11:51:55.339Z,28.90
2018-06-09T11:52:59.793Z,27.17
2018-06-09T11:54:06.967Z,25.77
2018-06-09T11:55:10.977Z,27.15
2018-06-09T11:56:14.746Z,27.58
2018-06-09T11:57:18.909Z,27.17
2018-06-09T11:58:22.978Z,26.33
2018-06-09T11:59:26.939Z,27.40
2018-06-09T12:00:31.900Z,28.87
2018-06-09T12:01:35.688Z,28.30
2018-06-09T12:02:39.528Z,28.73
2018-06-09T12:03:43.318Z,29.23
2018-06-09T12:04:47.436Z,27.87
2018-06-09T12:05:51.433Z,31.00
2018-06-09T12:06:56.706Z,29.10
2018-06-09T12:08:00.659Z,25.95
2018-06-09T12:09:06.469Z,27.55
2018-06-09T12:10:10.547Z,27.70
2018-06-09T12:11:21.244Z,28.15
2018-06-09T12:12:25.269Z,25.62
2018-06-09T12:13:31.431Z,26.60
2018-06-09T12:14:37.523Z,27.85
2018-06-09T12:15:41.529Z,26.90
2018-06-09T12:16:47.112Z,27.77
2018-06-09T12:17:53.731Z,28.38
2018-06-09T12:18:59.741Z,26.07
2018-06-09T12:20:03.637Z,27.77
2018-06-09T12:21:10.864Z,29.57
2018-06-09T12:22:14.618Z,28.50
2018-06-09T12:23:19.205Z,27.32
2018-06-09T12:24:22.973Z,29.07
2018-06-09T12:25:27.435Z,27.15
2018-06-09T12:26:31.699Z,26.30
2018-06-09T12:27:36.378Z,27.48
2018-06-09T12:28:40.188Z,27.07
2018-06-09T12:29:43.981Z,27.80
2018-06-09T12:30:48.766Z,26.10
2018-06-09T12:31:52.664Z,27.25
2018-06-09T12:32:57.390Z,26.87
2018-06-09T12:34:01.265Z,28.00
2018-06-09T12:35:05.079Z,29.20
2018-06-09T12:36:10.128Z,27.65
2018-06-09T12:37:14.994Z,28.40
2018-06-09T12:38:18.862Z,28.85
2018-06-09T12:39:22.700Z,32.63
2018-06-09T12:40:27.620Z,27.77
2018-06-09T12:41:31.831Z,26.60
2018-06-09T12:42:37.293Z,26.10
2018-06-09T12:43:41.596Z,27.60
2018-06-09T12:44:46.445Z,35.78
2018-06-09T12:45:50.543Z,35.70
2018-06-09T12:46:55.712Z,39.50
2018-06-09T12:47:59.574Z,32.03
2018-06-09T12:49:03.385Z,31.35
2018-06-09T12:50:07.876Z,32.90
2018-06-09T12:51:11.679Z,42.38
2018-06-09T12:52:16.256Z,91.45
2018-06-09T12:53:21.570Z,55.60
2018-06-09T12:54:25.435Z,37.20
2018-06-09T12:55:29.222Z,48.55
2018-06-09T12:56:34.538Z,44.83
2018-06-09T12:57:40.779Z,39.57
2018-06-09T12:58:45.726Z,30.53
2018-06-09T12:59:50.356Z,29.63
2018-06-09T13:00:54.598Z,32.58
2018-06-09T13:02:00.134Z,30.40
2018-06-09T13:03:05.083Z,27.85
2018-06-09T13:04:08.873Z,26.80
2018-06-09T13:05:18.639Z,24.47
2018-06-09T13:07:34.222Z,25.20
2018-06-09T13:08:39.446Z,27.65
2018-06-09T13:09:45.841Z,26.85
2018-06-09T13:10:50.041Z,26.00
2018-06-09T13:11:55.870Z,25.32
2018-06-09T13:13:00.968Z,24.30
2018-06-09T13:14:07.676Z,24.52
2018-06-09T13:15:11.619Z,23.33
2018-06-09T13:16:17.030Z,23.07
2018-06-09T13:17:21.820Z,21.80
2018-06-09T13:18:27.130Z,21.50
2018-06-09T13:19:32.610Z,20.60
2018-06-09T13:20:36.583Z,21.17
2018-06-09T13:21:40.355Z,19.55
2018-06-09T13:22:47.359Z,20.10
2018-06-09T13:23:51.230Z,19.85
2018-06-09T13:24:55.280Z,19.40
2018-06-09T13:26:00.184Z,21.30
2018-06-09T13:27:04.969Z,21.12
2018-06-09T13:28:09.196Z,20.40
2018-06-09T13:29:13.212Z,20.10
2018-06-09T13:30:17.505Z,19.30
2018-06-09T13:31:21.447Z,22.55
2018-06-09T13:32:25.452Z,22.87
2018-06-09T13:33:31.653Z,23.40
2018-06-09T13:34:35.623Z,21.75
2018-06-09T13:35:40.482Z,20.50
2018-06-09T13:36:46.641Z,20.00
2018-06-09T13:37:50.571Z,21.90
2018-06-09T13:38:55.251Z,20.30
2018-06-09T13:39:59.496Z,19.17
2018-06-09T13:41:03.493Z,41.45
2018-06-09T13:42:07.459Z,20.85
2018-06-09T13:43:12.093Z,19.77
2018-06-09T13:44:16.386Z,19.90
2018-06-09T13:45:21.647Z,20.50
2018-06-09T13:46:26.026Z,19.30